createdAt,value
2023-09-04T00:00:54.591Z,3.73
2023-09-04T00:03:22.652Z,3.80
2023-09-04T00:05:50.841Z,4.03
2023-09-04T00:08:18.668Z,4.00
2023-09-04T00:10:46.540Z,4.23
2023-09-04T00:13:16.044Z,3.87
2023-09-04T00:15:43.821Z,4.33
2023-09-04T00:18:11.648Z,4.43
2023-09-04T00:20:39.409Z,4.10
2023-09-04T00:23:07.477Z,4.43
2023-09-04T00:25:35.945Z,4.67
2023-09-04T00:28:04.211Z,3.70
2023-09-04T00:30:33.595Z,4.50
2023-09-04T00:33:01.360Z,4.50
2023-09-04T00:35:29.131Z,4.63
2023-09-04T00:37:56.862Z,4.50
2023-09-04T00:40:24.592Z,4.77
2023-09-04T00:42:52.467Z,4.60
2023-09-04T00:45:20.269Z,4.47
2023-09-04T00:47:49.799Z,4.10
2023-09-04T00:50:22.248Z,3.80
2023-09-04T00:52:51.309Z,4.10
2023-09-04T00:55:19.689Z,3.87
2023-09-04T00:57:47.468Z,4.03
2023-09-04T01:00:16.233Z,3.60
2023-09-04T01:02:44.225Z,4.23
2023-09-04T01:05:13.523Z,3.87
2023-09-04T01:07:42.271Z,3.50
2023-09-04T01:10:11.848Z,3.50
2023-09-04T01:12:48.245Z,3.90
2023-09-04T01:15:16.496Z,3.80
2023-09-04T01:17:45.629Z,3.83
2023-09-04T01:20:28.957Z,3.47
2023-09-04T01:22:57.619Z,3.33
2023-09-04T01:25:32.354Z,3.27
2023-09-04T01:28:05.944Z,3.63
2023-09-04T01:30:40.350Z,3.60
2023-09-04T01:33:13.383Z,3.70
2023-09-04T01:35:45.248Z,3.40
2023-09-04T01:38:14.304Z,3.50
2023-09-04T01:40:43.510Z,3.47
2023-09-04T01:43:11.271Z,3.50
2023-09-04T01:45:39.088Z,3.30
2023-09-04T01:48:08.136Z,3.67
2023-09-04T01:50:35.888Z,3.30
2023-09-04T01:53:06.073Z,3.60
2023-09-04T01:55:33.810Z,3.50
2023-09-04T01:58:01.741Z,3.40
2023-09-04T02:00:29.523Z,3.47
2023-09-04T02:02:57.376Z,4.20
2023-09-04T02:05:25.148Z,3.40
2023-09-04T02:07:52.915Z,3.50
2023-09-04T02:10:23.969Z,3.60
2023-09-04T02:12:51.803Z,3.40
2023-09-04T02:15:19.534Z,3.37
2023-09-04T02:17:47.340Z,3.90
2023-09-04T02:20:15.098Z,3.60
2023-09-04T02:22:42.839Z,3.57
2023-09-04T02:25:10.577Z,3.83
2023-09-04T02:27:39.668Z,3.73
2023-09-04T02:30:08.820Z,3.47
2023-09-04T02:32:36.684Z,3.80
2023-09-04T02:35:04.729Z,3.90
2023-09-04T02:37:33.159Z,3.80
2023-09-04T02:40:00.918Z,3.93
2023-09-04T02:42:30.020Z,3.57
2023-09-04T02:44:59.266Z,4.00
2023-09-04T02:47:26.977Z,3.73
2023-09-04T02:49:55.400Z,3.57
2023-09-04T02:52:23.141Z,3.60
2023-09-04T02:54:50.907Z,3.70
2023-09-04T02:57:18.647Z,3.80
2023-09-04T02:59:46.365Z,3.40
2023-09-04T03:02:15.533Z,3.80
2023-09-04T03:04:43.320Z,3.40
2023-09-04T03:07:11.064Z,3.90
2023-09-04T03:09:38.771Z,3.40
2023-09-04T03:12:07.226Z,3.33
2023-09-04T03:14:34.962Z,3.70
2023-09-04T03:17:03.056Z,4.10
2023-09-04T03:19:32.196Z,3.00
2023-09-04T03:21:59.909Z,3.27
2023-09-04T03:24:28.122Z,3.47
2023-09-04T03:26:55.924Z,3.20
2023-09-04T03:29:23.686Z,3.53
2023-09-04T03:31:52.135Z,3.30
2023-09-04T03:34:20.283Z,3.20
2023-09-04T03:36:49.569Z,3.33
2023-09-04T03:39:17.934Z,3.17
2023-09-04T03:41:45.686Z,3.20
2023-09-04T03:44:13.390Z,3.37
2023-09-04T03:46:41.146Z,2.97
2023-09-04T03:49:09.241Z,3.33
2023-09-04T03:51:37.362Z,3.80
2023-09-04T03:54:06.894Z,3.70
2023-09-04T03:56:36.091Z,3.30
2023-09-04T03:59:03.823Z,3.63
2023-09-04T04:01:32.923Z,3.20
2023-09-04T04:04:01.133Z,3.50
2023-09-04T04:06:29.483Z,3.60
2023-09-04T04:08:57.238Z,3.70
2023-09-04T04:11:27.521Z,3.47
2023-09-04T04:13:55.276Z,3.60
2023-09-04T04:16:23.075Z,3.70
2023-09-04T04:18:50.924Z,3.53
2023-09-04T04:21:18.674Z,3.03
2023-09-04T04:23:47.457Z,3.77
2023-09-04T04:26:15.367Z,3.70
2023-09-04T04:28:44.488Z,3.27
2023-09-04T04:31:12.605Z,3.50
2023-09-04T04:33:40.376Z,3.30
2023-09-04T04:36:08.118Z,3.17
2023-09-04T04:38:35.826Z,3.80
2023-09-04T04:41:03.568Z,3.60
2023-09-04T04:43:31.567Z,3.30
2023-09-04T04:46:00.859Z,3.07
2023-09-04T04:48:28.671Z,3.13
2023-09-04T04:50:57.119Z,3.20
2023-09-04T04:53:25.122Z,3.00
2023-09-04T04:55:52.906Z,3.23
2023-09-04T04:58:20.683Z,2.90
2023-09-04T05:00:48.431Z,2.70
2023-09-04T05:03:17.618Z,3.80
2023-09-04T05:05:47.035Z,2.93
2023-09-04T05:08:15.343Z,2.87
2023-09-04T05:10:43.100Z,3.17
2023-09-04T05:13:10.990Z,3.13
2023-09-04T05:15:38.862Z,3.00
2023-09-04T05:18:07.151Z,3.33
2023-09-04T05:20:39.987Z,3.30
2023-09-04T05:23:07.736Z,3.57
2023-09-04T05:25:35.442Z,3.33
2023-09-04T05:28:03.783Z,3.37
2023-09-04T05:30:34.271Z,3.47
2023-09-04T05:33:02.074Z,3.00
2023-09-04T05:35:29.884Z,3.03
2023-09-04T05:37:59.526Z,3.23
2023-09-04T05:40:27.422Z,3.20
2023-09-04T05:42:55.253Z,3.30
2023-09-04T05:45:23.047Z,3.07
2023-09-04T05:47:51.009Z,3.50
2023-09-04T05:50:18.990Z,3.07
2023-09-04T05:52:46.744Z,3.20
2023-09-04T05:55:15.884Z,3.47
2023-09-04T05:57:43.614Z,3.33
2023-09-04T06:00:13.021Z,3.30
2023-09-04T06:02:40.817Z,3.60
2023-09-04T06:05:09.153Z,3.80
2023-09-04T06:07:36.987Z,5.70
2023-09-04T06:10:05.525Z,5.20
2023-09-04T06:12:34.657Z,5.13
2023-09-04T06:15:02.426Z,4.60
2023-09-04T06:17:30.189Z,4.00
2023-09-04T06:19:57.984Z,3.40
2023-09-04T06:22:25.810Z,3.58
2023-09-04T06:24:53.579Z,3.47
2023-09-04T06:27:21.376Z,3.75
2023-09-04T06:29:50.512Z,3.60
2023-09-04T06:32:18.291Z,3.47
2023-09-04T06:34:46.009Z,3.08
2023-09-04T06:37:13.780Z,3.03
2023-09-04T06:39:42.606Z,2.63
2023-09-04T06:42:10.929Z,2.67
2023-09-04T06:44:38.759Z,2.47
2023-09-04T06:47:07.939Z,2.50
2023-09-04T06:49:35.652Z,2.45
2023-09-04T06:52:03.611Z,2.10
2023-09-04T06:54:31.387Z,2.20
2023-09-04T06:56:59.490Z,2.35
2023-09-04T06:59:27.644Z,2.30
2023-09-04T07:01:55.484Z,2.25
2023-09-04T07:04:24.712Z,2.10
2023-09-04T07:06:52.490Z,2.30
2023-09-04T07:09:20.273Z,2.13
2023-09-04T07:11:48.085Z,1.83
2023-09-04T07:14:15.849Z,1.90
2023-09-04T07:16:57.716Z,2.13
2023-09-04T07:19:31.476Z,2.00
2023-09-04T07:21:59.215Z,2.10
2023-09-04T07:24:26.955Z,2.17
2023-09-04T07:26:54.756Z,1.90
2023-09-04T07:29:22.996Z,2.00
2023-09-04T07:31:50.818Z,2.30
2023-09-04T07:34:18.903Z,1.90
2023-09-04T07:36:48.013Z,2.30
2023-09-04T07:39:15.783Z,2.83
2023-09-04T07:41:43.503Z,2.10
2023-09-04T07:44:11.307Z,1.75
2023-09-04T07:46:39.063Z,2.60
2023-09-04T07:49:06.765Z,2.20
2023-09-04T07:51:35.970Z,2.00
2023-09-04T07:54:06.162Z,2.13
2023-09-04T07:56:42.036Z,2.30
2023-09-04T07:59:11.400Z,2.42
2023-09-04T08:01:40.212Z,1.95
2023-09-04T08:04:08.194Z,2.10
2023-09-04T08:06:35.971Z,2.45
2023-09-04T08:09:05.420Z,2.45
2023-09-04T08:11:33.407Z,2.58
2023-09-04T08:14:01.141Z,2.90
2023-09-04T08:16:29.128Z,2.35
2023-09-04T08:18:57.041Z,2.10
2023-09-04T08:21:24.902Z,2.35
2023-09-04T08:23:52.721Z,2.63
2023-09-04T08:26:21.975Z,1.83
2023-09-04T08:28:49.727Z,1.88
2023-09-04T08:31:17.551Z,2.33
2023-09-04T08:33:45.473Z,2.10
2023-09-04T08:36:14.284Z,2.65
2023-09-04T08:38:42.782Z,2.40
2023-09-04T08:41:11.676Z,2.70
2023-09-04T08:43:41.423Z,2.70
2023-09-04T08:46:10.028Z,1.80
2023-09-04T08:48:41.614Z,1.90
2023-09-04T08:51:09.816Z,2.05
2023-09-04T08:53:38.315Z,2.10
2023-09-04T08:56:06.584Z,1.80
2023-09-04T08:58:34.892Z,2.40
2023-09-04T09:01:04.804Z,2.38
2023-09-04T09:03:33.333Z,2.00
2023-09-04T09:06:02.363Z,2.20
2023-09-04T09:08:34.844Z,2.10
2023-09-04T09:11:04.578Z,2.20
2023-09-04T09:13:32.533Z,2.35
2023-09-04T09:16:00.310Z,1.90
2023-09-04T09:18:39.991Z,2.20
2023-09-04T09:21:23.333Z,2.40
2023-09-04T09:24:08.356Z,2.00
2023-09-04T09:26:36.136Z,2.10
2023-09-04T09:29:05.381Z,2.17
2023-09-04T09:31:34.151Z,2.55
2023-09-04T09:34:03.544Z,2.42
2023-09-04T09:36:31.426Z,2.60
2023-09-04T09:38:59.171Z,2.60
2023-09-04T09:41:27.920Z,2.50
2023-09-04T09:43:55.686Z,2.03
2023-09-04T09:46:23.485Z,2.17
2023-09-04T09:48:51.406Z,2.45
2023-09-04T09:51:21.184Z,2.28
2023-09-04T09:53:50.172Z,2.08
2023-09-04T09:56:19.878Z,2.10
2023-09-04T09:58:50.295Z,2.60
2023-09-04T10:01:19.528Z,2.20
2023-09-04T10:03:48.619Z,2.40
2023-09-04T10:06:24.996Z,2.50
2023-09-04T10:08:54.044Z,2.40
2023-09-04T10:11:22.727Z,2.03
2023-09-04T10:13:58.556Z,2.42
2023-09-04T10:16:33.667Z,2.50
2023-09-04T10:19:04.771Z,2.40
2023-09-04T10:21:39.840Z,2.20
2023-09-04T10:24:13.956Z,2.50
2023-09-04T10:26:49.286Z,2.15
2023-09-04T10:29:20.418Z,2.17
2023-09-04T10:31:49.955Z,2.15
2023-09-04T10:34:17.822Z,2.40
2023-09-04T10:36:48.550Z,1.77
2023-09-04T10:39:16.587Z,2.08
2023-09-04T10:41:45.043Z,1.95
2023-09-04T10:44:14.042Z,1.83
2023-09-04T10:46:56.868Z,2.13
2023-09-04T10:49:32.922Z,2.10
2023-09-04T10:52:02.084Z,2.22
2023-09-04T10:54:29.875Z,2.25
2023-09-04T10:56:59.301Z,1.98
2023-09-04T10:59:28.108Z,2.08
2023-09-04T11:01:56.502Z,1.85
2023-09-04T11:04:48.018Z,2.00
2023-09-04T11:07:36.389Z,1.80
2023-09-04T11:10:26.577Z,1.98
2023-09-04T11:12:55.112Z,2.22
2023-09-04T11:15:23.596Z,2.08
2023-09-04T11:17:52.749Z,2.10
2023-09-04T11:20:26.419Z,2.25
2023-09-04T11:22:57.283Z,2.13
2023-09-04T11:25:25.865Z,2.30
2023-09-04T11:27:53.731Z,2.20
2023-09-04T11:30:21.944Z,2.40
2023-09-04T11:32:49.932Z,2.25
2023-09-04T11:35:17.874Z,2.20
2023-09-04T11:37:45.704Z,2.00
2023-09-04T11:40:14.827Z,2.10
2023-09-04T11:42:42.538Z,1.75
2023-09-04T11:45:11.169Z,2.00
2023-09-04T11:47:41.581Z,1.83
2023-09-04T11:50:16.363Z,1.75
2023-09-04T11:52:44.545Z,2.00
2023-09-04T11:55:14.322Z,1.90
2023-09-04T11:57:43.507Z,1.77
2023-09-04T12:00:12.653Z,1.77
2023-09-04T12:02:43.691Z,1.95
2023-09-04T12:05:12.032Z,1.70
2023-09-04T12:07:39.833Z,2.20
2023-09-04T12:10:09.281Z,2.03
2023-09-04T12:12:39.594Z,2.08
2023-09-04T12:15:08.052Z,1.95
2023-09-04T12:17:35.814Z,1.98
2023-09-04T12:20:05.001Z,2.00
2023-09-04T12:22:32.956Z,1.95
2023-09-04T12:25:01.672Z,2.05
2023-09-04T12:27:30.663Z,2.10
2023-09-04T12:29:59.930Z,2.05
2023-09-04T12:32:27.786Z,2.10
2023-09-04T12:35:01.575Z,2.33
2023-09-04T12:37:31.618Z,1.90
2023-09-04T12:39:59.456Z,2.20
2023-09-04T12:42:27.270Z,2.00
2023-09-04T12:44:55.863Z,1.98
2023-09-04T12:47:25.162Z,1.90
2023-09-04T12:49:53.047Z,1.85
2023-09-04T12:52:20.768Z,2.10
2023-09-04T12:54:50.142Z,2.00
2023-09-04T12:57:17.941Z,1.95
2023-09-04T12:59:45.704Z,2.00
2023-09-04T13:02:13.465Z,1.90
2023-09-04T13:04:42.591Z,1.77
2023-09-04T13:07:10.317Z,2.00
2023-09-04T13:09:39.250Z,2.03
2023-09-04T13:12:09.010Z,2.20
2023-09-04T13:14:37.494Z,2.30
2023-09-04T13:17:05.663Z,2.00
2023-09-04T13:19:33.812Z,2.05
2023-09-04T13:22:04.127Z,2.10
2023-09-04T13:24:32.370Z,1.83
2023-09-04T13:27:00.129Z,2.00
2023-09-04T13:29:27.964Z,1.70
2023-09-04T13:31:55.755Z,2.08
2023-09-04T13:34:23.466Z,1.90
2023-09-04T13:36:51.234Z,1.70
2023-09-04T13:39:20.391Z,1.90
2023-09-04T13:41:48.124Z,2.08
2023-09-04T13:44:15.901Z,2.03
2023-09-04T13:46:43.708Z,2.35
2023-09-04T13:49:11.486Z,1.77
2023-09-04T13:51:39.201Z,1.73
2023-09-04T13:54:11.237Z,2.05
2023-09-04T13:56:40.364Z,1.85
2023-09-04T13:59:08.946Z,1.80
2023-09-04T14:01:37.078Z,1.90
2023-09-04T14:04:05.718Z,1.90
2023-09-04T14:06:33.468Z,1.95
2023-09-04T14:09:01.247Z,2.20
2023-09-04T14:11:29.016Z,1.80
2023-09-04T14:13:58.606Z,2.10
2023-09-04T14:16:26.404Z,2.10
2023-09-04T14:19:03.021Z,1.90
2023-09-04T14:21:33.283Z,2.10
2023-09-04T14:24:01.122Z,1.80
2023-09-04T14:26:28.938Z,2.00
2023-09-04T14:28:58.045Z,2.00
2023-09-04T14:31:26.055Z,2.15
2023-09-04T14:33:53.886Z,1.92
2023-09-04T14:36:21.655Z,1.92
2023-09-04T14:38:49.902Z,2.08
2023-09-04T14:41:20.202Z,2.10
2023-09-04T14:43:48.062Z,2.15
2023-09-04T14:46:20.616Z,1.90
2023-09-04T14:48:49.302Z,1.80
2023-09-04T14:51:17.059Z,1.92
2023-09-04T14:53:45.108Z,1.75
2023-09-04T14:56:13.070Z,2.10
2023-09-04T14:58:40.820Z,2.20
2023-09-04T15:01:15.580Z,1.95
2023-09-04T15:03:45.875Z,2.03
2023-09-04T15:06:14.423Z,2.08
2023-09-04T15:08:42.528Z,1.83
2023-09-04T15:11:13.981Z,1.85
2023-09-04T15:13:43.081Z,2.00
2023-09-04T15:16:11.445Z,2.08
2023-09-04T15:18:39.510Z,1.80
2023-09-04T15:21:08.981Z,2.35
2023-09-04T15:23:36.862Z,1.92
2023-09-04T15:26:04.735Z,1.88
2023-09-04T15:28:32.515Z,2.10
2023-09-04T15:31:00.314Z,2.00
2023-09-04T15:33:29.555Z,2.00
2023-09-04T15:35:59.192Z,2.00
2023-09-04T15:38:28.338Z,2.40
2023-09-04T15:40:57.011Z,2.20
2023-09-04T15:43:25.089Z,2.28
2023-09-04T15:45:53.570Z,2.20
2023-09-04T15:48:21.764Z,1.98
2023-09-04T15:50:50.045Z,3.25
2023-09-04T15:53:20.996Z,2.00
2023-09-04T15:55:55.871Z,1.98
2023-09-04T15:58:24.889Z,2.25
2023-09-04T16:00:53.274Z,1.98
2023-09-04T16:03:21.343Z,2.13
2023-09-04T16:05:49.772Z,1.90
2023-09-04T16:08:17.780Z,2.13
2023-09-04T16:10:45.644Z,2.22
2023-09-04T16:13:17.502Z,2.03
2023-09-04T16:15:45.354Z,1.95
2023-09-04T16:18:13.202Z,1.98
2023-09-04T16:20:42.168Z,2.00
2023-09-04T16:23:11.991Z,2.15
2023-09-04T16:25:39.847Z,2.00
2023-09-04T16:28:08.242Z,1.90
2023-09-04T16:30:37.829Z,2.00
2023-09-04T16:33:12.600Z,2.08
2023-09-04T16:35:43.572Z,1.90
2023-09-04T16:38:11.400Z,1.80
2023-09-04T16:40:41.724Z,2.00
2023-09-04T16:43:09.530Z,1.88
2023-09-04T16:45:39.274Z,2.72
2023-09-04T16:48:08.611Z,2.20
2023-09-04T16:50:36.412Z,2.10
2023-09-04T16:53:05.048Z,1.83
2023-09-04T16:55:33.929Z,2.10
2023-09-04T16:58:01.810Z,2.20
2023-09-04T17:00:29.642Z,2.20
2023-09-04T17:02:58.956Z,1.88
2023-09-04T17:05:26.811Z,2.33
2023-09-04T17:07:54.542Z,1.90
2023-09-04T17:10:22.448Z,1.90
2023-09-04T17:12:50.188Z,1.85
2023-09-04T17:15:18.082Z,2.28
2023-09-04T17:17:46.013Z,2.00
2023-09-04T17:20:15.474Z,1.90
2023-09-04T17:22:43.197Z,2.30
2023-09-04T17:25:11.090Z,2.40
2023-09-04T17:27:38.829Z,2.20
2023-09-04T17:30:09.216Z,2.33
2023-09-04T17:32:38.592Z,2.50
2023-09-04T17:35:07.611Z,2.42
2023-09-04T17:37:36.716Z,2.10
2023-09-04T17:40:04.872Z,2.30
2023-09-04T17:42:32.581Z,2.45
2023-09-04T17:45:00.403Z,2.60
2023-09-04T17:47:28.176Z,2.33
2023-09-04T17:49:55.973Z,2.25
2023-09-04T17:52:23.709Z,2.20
2023-09-04T17:54:52.850Z,2.08
2023-09-04T17:57:20.683Z,2.60
2023-09-04T17:59:48.425Z,2.03
2023-09-04T18:02:16.186Z,2.60
2023-09-04T18:04:43.927Z,2.50
2023-09-04T18:07:11.680Z,2.50
2023-09-04T18:09:40.538Z,2.40
2023-09-04T18:12:10.120Z,2.58
2023-09-04T18:14:37.832Z,2.10
2023-09-04T18:17:05.858Z,2.47
2023-09-04T18:19:33.710Z,2.30
2023-09-04T18:22:02.267Z,2.58
2023-09-04T18:24:30.890Z,2.60
2023-09-04T18:27:02.120Z,2.35
2023-09-04T18:29:31.253Z,2.30
2023-09-04T18:31:58.977Z,2.42
2023-09-04T18:34:26.743Z,2.38
2023-09-04T18:36:54.464Z,2.40
2023-09-04T18:39:22.314Z,2.28
2023-09-04T18:41:50.624Z,2.80
2023-09-04T18:44:18.406Z,2.60
2023-09-04T18:46:47.660Z,2.60
2023-09-04T18:49:15.440Z,2.58
2023-09-04T18:51:43.357Z,2.70
2023-09-04T18:54:11.362Z,2.70
2023-09-04T18:56:39.061Z,2.67
2023-09-04T18:59:06.877Z,2.60
2023-09-04T19:01:34.698Z,2.65
2023-09-04T19:04:03.858Z,2.78
2023-09-04T19:06:31.534Z,2.80
2023-09-04T19:08:59.316Z,2.65
2023-09-04T19:11:27.091Z,2.70
2023-09-04T19:13:54.833Z,2.72
2023-09-04T19:16:24.162Z,2.83
2023-09-04T19:18:54.085Z,2.97
2023-09-04T19:21:23.231Z,2.60
2023-09-04T19:23:51.086Z,2.90
2023-09-04T19:26:18.786Z,2.90
2023-09-04T19:28:51.066Z,2.90
2023-09-04T19:31:20.428Z,3.05
2023-09-04T19:33:49.334Z,2.90
2023-09-04T19:36:17.098Z,2.78
2023-09-04T19:38:46.208Z,2.92
2023-09-04T19:41:13.982Z,3.20
2023-09-04T19:43:42.014Z,3.00
2023-09-04T19:46:10.233Z,3.03
2023-09-04T19:48:38.095Z,3.10
2023-09-04T19:51:05.840Z,3.55
2023-09-04T19:53:33.598Z,2.92
2023-09-04T19:56:02.917Z,3.20
2023-09-04T19:58:31.148Z,3.13
2023-09-04T20:00:59.717Z,3.38
2023-09-04T20:03:27.693Z,3.42
2023-09-04T20:05:55.967Z,3.03
2023-09-04T20:08:24.011Z,3.22
2023-09-04T20:10:51.891Z,3.13
2023-09-04T20:13:21.059Z,3.30
2023-09-04T20:15:49.146Z,3.30
2023-09-04T20:18:16.865Z,3.50
2023-09-04T20:20:44.659Z,3.10
2023-09-04T20:23:12.381Z,3.33
2023-09-04T20:25:40.093Z,3.47
2023-09-04T20:28:07.981Z,2.95
2023-09-04T20:30:37.205Z,3.33
2023-09-04T20:33:05.843Z,3.13
2023-09-04T20:35:34.787Z,3.22
2023-09-04T20:38:02.549Z,3.50
2023-09-04T20:40:30.350Z,2.97
2023-09-04T20:42:58.167Z,3.38
2023-09-04T20:45:26.104Z,3.10
2023-09-04T20:47:55.285Z,2.90
2023-09-04T20:50:23.164Z,3.35
2023-09-04T20:52:50.904Z,3.35
2023-09-04T20:55:18.842Z,3.45
2023-09-04T20:57:46.598Z,3.50
2023-09-04T21:00:14.946Z,3.13
2023-09-04T21:02:44.552Z,3.38
2023-09-04T21:05:13.683Z,3.50
2023-09-04T21:07:40.290Z,3.20
2023-09-04T21:10:08.438Z,3.85
2023-09-04T21:12:53.486Z,3.33
2023-09-04T21:15:38.834Z,3.67
2023-09-04T21:18:24.785Z,3.70
2023-09-04T21:21:11.402Z,3.55
2023-09-04T21:23:56.972Z,3.40
2023-09-04T21:26:42.328Z,3.80
2023-09-04T21:29:27.865Z,3.65
2023-09-04T21:32:13.189Z,3.90
2023-09-04T21:34:58.754Z,3.50
2023-09-04T21:37:45.744Z,3.47
2023-09-04T21:40:31.158Z,3.67
2023-09-04T21:43:16.711Z,3.92
2023-09-04T21:46:04.053Z,4.18
2023-09-04T21:48:51.337Z,3.38
2023-09-04T21:51:36.827Z,3.70
2023-09-04T21:54:23.806Z,3.65
2023-09-04T21:57:09.057Z,3.40
2023-09-04T21:59:54.602Z,4.05
2023-09-04T22:02:40.216Z,3.47
2023-09-04T22:05:25.942Z,3.40
2023-09-04T22:08:11.433Z,3.60
2023-09-04T22:10:58.102Z,3.40
2023-09-04T22:13:43.538Z,3.38
2023-09-04T22:16:29.083Z,3.47
2023-09-04T22:19:14.775Z,3.50
2023-09-04T22:21:59.974Z,3.33
2023-09-04T22:24:45.288Z,3.58
2023-09-04T22:27:32.130Z,3.22
2023-09-04T22:30:17.506Z,3.40
2023-09-04T22:33:02.950Z,3.58
2023-09-04T22:35:48.078Z,2.80
2023-09-04T22:38:33.369Z,3.20
2023-09-04T22:41:22.697Z,3.17
2023-09-04T22:44:09.562Z,2.80
2023-09-04T22:46:55.005Z,2.95
2023-09-04T22:49:40.216Z,3.13
2023-09-04T22:52:27.477Z,3.22
2023-09-04T22:55:12.745Z,3.28
2023-09-04T22:57:58.177Z,3.25
2023-09-04T23:00:45.014Z,3.20
2023-09-04T23:03:32.217Z,3.40
2023-09-04T23:06:17.661Z,3.13
2023-09-04T23:09:03.079Z,3.47
2023-09-04T23:11:48.404Z,3.20
2023-09-04T23:14:33.800Z,3.35
2023-09-04T23:17:20.388Z,3.60
2023-09-04T23:20:05.942Z,3.50
2023-09-04T23:22:33.654Z,3.80
2023-09-04T23:25:01.409Z,4.10
2023-09-04T23:27:30.154Z,4.22
2023-09-04T23:29:58.380Z,4.25
2023-09-04T23:32:42.322Z,3.80
2023-09-04T23:35:28.503Z,3.70
2023-09-04T23:38:07.689Z,3.60
2023-09-04T23:40:53.236Z,3.97
2023-09-04T23:43:38.599Z,3.33
2023-09-04T23:46:06.398Z,2.97
2023-09-04T23:48:35.573Z,3.17
2023-09-04T23:51:03.298Z,3.55
2023-09-04T23:53:31.035Z,3.63
2023-09-04T23:55:58.938Z,3.50
2023-09-04T23:58:26.660Z,3.30
